sensor_id;sensor_type;location;lat;lon;timestamp;P1;durP1;ratioP1;P2;durP2;ratioP2
3561;SDS011;1795;52.074;4.754;2023-02-21T00:00:01;39.20;;;21.70;;
3561;SDS011;1795;52.074;4.754;2023-02-21T00:02:46;36.88;;;21.90;;
3561;SDS011;1795;52.074;4.754;2023-02-21T00:05:32;37.20;;;21.50;;
3561;SDS011;1795;52.074;4.754;2023-02-21T00:08:19;34.00;;;19.13;;
3561;SDS011;1795;52.074;4.754;2023-02-21T00:11:04;38.00;;;20.40;;
3561;SDS011;1795;52.074;4.754;2023-02-21T00:13:50;40.75;;;21.35;;
3561;SDS011;1795;52.074;4.754;2023-02-21T00:16:36;37.73;;;20.83;;
3561;SDS011;1795;52.074;4.754;2023-02-21T00:19:21;36.60;;;20.50;;
3561;SDS011;1795;52.074;4.754;2023-02-21T00:22:07;41.05;;;21.15;;
3561;SDS011;1795;52.074;4.754;2023-02-21T00:24:53;36.33;;;20.75;;
3561;SDS011;1795;52.074;4.754;2023-02-21T00:27:39;39.40;;;21.10;;
3561;SDS011;1795;52.074;4.754;2023-02-21T00:30:25;35.60;;;19.95;;
3561;SDS011;1795;52.074;4.754;2023-02-21T00:33:11;40.80;;;21.30;;
3561;SDS011;1795;52.074;4.754;2023-02-21T00:35:56;39.63;;;20.95;;
3561;SDS011;1795;52.074;4.754;2023-02-21T00:38:42;38.25;;;20.40;;
3561;SDS011;1795;52.074;4.754;2023-02-21T00:41:28;43.63;;;21.90;;
3561;SDS011;1795;52.074;4.754;2023-02-21T00:44:14;40.33;;;22.00;;
3561;SDS011;1795;52.074;4.754;2023-02-21T00:47:00;39.67;;;22.85;;
3561;SDS011;1795;52.074;4.754;2023-02-21T00:49:45;42.25;;;22.52;;
3561;SDS011;1795;52.074;4.754;2023-02-21T00:52:31;45.92;;;21.80;;
3561;SDS011;1795;52.074;4.754;2023-02-21T00:55:17;47.27;;;22.93;;
3561;SDS011;1795;52.074;4.754;2023-02-21T00:58:03;39.38;;;23.20;;
3561;SDS011;1795;52.074;4.754;2023-02-21T01:00:49;44.03;;;22.00;;
3561;SDS011;1795;52.074;4.754;2023-02-21T01:03:34;36.88;;;21.73;;
3561;SDS011;1795;52.074;4.754;2023-02-21T01:06:20;38.40;;;21.92;;
3561;SDS011;1795;52.074;4.754;2023-02-21T01:09:05;40.07;;;21.67;;
3561;SDS011;1795;52.074;4.754;2023-02-21T01:11:50;44.70;;;23.10;;
3561;SDS011;1795;52.074;4.754;2023-02-21T01:14:37;41.80;;;23.80;;
3561;SDS011;1795;52.074;4.754;2023-02-21T01:17:23;43.70;;;22.50;;
3561;SDS011;1795;52.074;4.754;2023-02-21T01:20:09;43.47;;;23.00;;
3561;SDS011;1795;52.074;4.754;2023-02-21T01:22:54;51.25;;;24.38;;
3561;SDS011;1795;52.074;4.754;2023-02-21T01:25:40;44.83;;;24.87;;
3561;SDS011;1795;52.074;4.754;2023-02-21T01:28:26;43.65;;;25.10;;
3561;SDS011;1795;52.074;4.754;2023-02-21T01:31:16;46.42;;;24.77;;
3561;SDS011;1795;52.074;4.754;2023-02-21T01:34:02;47.42;;;24.13;;
3561;SDS011;1795;52.074;4.754;2023-02-21T01:36:48;44.65;;;24.85;;
3561;SDS011;1795;52.074;4.754;2023-02-21T01:39:33;50.28;;;24.25;;
3561;SDS011;1795;52.074;4.754;2023-02-21T01:42:19;42.75;;;24.35;;
3561;SDS011;1795;52.074;4.754;2023-02-21T01:45:28;44.53;;;25.90;;
3561;SDS011;1795;52.074;4.754;2023-02-21T01:48:32;43.60;;;26.30;;
3561;SDS011;1795;52.074;4.754;2023-02-21T01:51:20;48.10;;;26.10;;
3561;SDS011;1795;52.074;4.754;2023-02-21T01:54:08;52.63;;;27.13;;
3561;SDS011;1795;52.074;4.754;2023-02-21T01:56:55;52.03;;;26.45;;
3561;SDS011;1795;52.074;4.754;2023-02-21T01:59:45;51.88;;;27.00;;
3561;SDS011;1795;52.074;4.754;2023-02-21T02:02:32;50.45;;;27.65;;
3561;SDS011;1795;52.074;4.754;2023-02-21T02:05:28;50.80;;;26.55;;
3561;SDS011;1795;52.074;4.754;2023-02-21T02:08:14;46.05;;;26.55;;
3561;SDS011;1795;52.074;4.754;2023-02-21T02:11:02;55.13;;;28.00;;
3561;SDS011;1795;52.074;4.754;2023-02-21T02:13:57;54.42;;;29.00;;
3561;SDS011;1795;52.074;4.754;2023-02-21T02:16:40;48.78;;;27.48;;
3561;SDS011;1795;52.074;4.754;2023-02-21T02:19:19;51.97;;;29.30;;
3561;SDS011;1795;52.074;4.754;2023-02-21T02:22:30;51.08;;;28.23;;
3561;SDS011;1795;52.074;4.754;2023-02-21T02:25:15;58.50;;;28.33;;
3561;SDS011;1795;52.074;4.754;2023-02-21T02:27:53;51.10;;;29.17;;
3561;SDS011;1795;52.074;4.754;2023-02-21T02:30:49;53.38;;;29.27;;
3561;SDS011;1795;52.074;4.754;2023-02-21T02:33:49;57.28;;;30.45;;
3561;SDS011;1795;52.074;4.754;2023-02-21T02:36:31;57.85;;;29.30;;
3561;SDS011;1795;52.074;4.754;2023-02-21T02:39:07;55.17;;;27.13;;
3561;SDS011;1795;52.074;4.754;2023-02-21T02:41:46;57.33;;;27.85;;
3561;SDS011;1795;52.074;4.754;2023-02-21T02:44:22;51.83;;;29.80;;
3561;SDS011;1795;52.074;4.754;2023-02-21T02:46:54;59.50;;;29.23;;
3561;SDS011;1795;52.074;4.754;2023-02-21T02:49:28;63.28;;;30.27;;
3561;SDS011;1795;52.074;4.754;2023-02-21T02:52:04;60.83;;;29.75;;
3561;SDS011;1795;52.074;4.754;2023-02-21T02:54:33;53.40;;;29.27;;
3561;SDS011;1795;52.074;4.754;2023-02-21T02:57:02;51.45;;;28.77;;
3561;SDS011;1795;52.074;4.754;2023-02-21T02:59:36;60.33;;;29.60;;
3561;SDS011;1795;52.074;4.754;2023-02-21T03:02:14;49.25;;;28.23;;
3561;SDS011;1795;52.074;4.754;2023-02-21T03:05:02;52.67;;;29.53;;
3561;SDS011;1795;52.074;4.754;2023-02-21T03:07:46;52.08;;;28.65;;
3561;SDS011;1795;52.074;4.754;2023-02-21T03:10:22;58.97;;;29.33;;
3561;SDS011;1795;52.074;4.754;2023-02-21T03:12:59;51.00;;;29.85;;
3561;SDS011;1795;52.074;4.754;2023-02-21T03:15:37;55.88;;;30.30;;
3561;SDS011;1795;52.074;4.754;2023-02-21T03:18:13;57.07;;;31.40;;
3561;SDS011;1795;52.074;4.754;2023-02-21T03:20:46;54.10;;;31.65;;
3561;SDS011;1795;52.074;4.754;2023-02-21T03:23:19;57.50;;;30.03;;
3561;SDS011;1795;52.074;4.754;2023-02-21T03:25:50;61.72;;;32.55;;
3561;SDS011;1795;52.074;4.754;2023-02-21T03:28:19;56.88;;;31.95;;
3561;SDS011;1795;52.074;4.754;2023-02-21T03:30:49;63.33;;;31.73;;
3561;SDS011;1795;52.074;4.754;2023-02-21T03:33:19;65.25;;;34.85;;
3561;SDS011;1795;52.074;4.754;2023-02-21T03:35:47;62.58;;;33.25;;
3561;SDS011;1795;52.074;4.754;2023-02-21T03:38:16;60.42;;;34.22;;
3561;SDS011;1795;52.074;4.754;2023-02-21T03:40:45;68.35;;;35.78;;
3561;SDS011;1795;52.074;4.754;2023-02-21T03:43:13;69.65;;;36.83;;
3561;SDS011;1795;52.074;4.754;2023-02-21T03:45:41;68.10;;;35.00;;
3561;SDS011;1795;52.074;4.754;2023-02-21T03:48:09;65.85;;;36.72;;
3561;SDS011;1795;52.074;4.754;2023-02-21T03:50:48;69.97;;;34.80;;
3561;SDS011;1795;52.074;4.754;2023-02-21T03:53:16;82.10;;;37.50;;
3561;SDS011;1795;52.074;4.754;2023-02-21T03:55:45;75.88;;;38.13;;
3561;SDS011;1795;52.074;4.754;2023-02-21T03:58:13;73.90;;;36.50;;
3561;SDS011;1795;52.074;4.754;2023-02-21T04:00:41;70.72;;;37.78;;
3561;SDS011;1795;52.074;4.754;2023-02-21T04:03:09;70.85;;;36.47;;
3561;SDS011;1795;52.074;4.754;2023-02-21T04:05:38;66.93;;;36.53;;
3561;SDS011;1795;52.074;4.754;2023-02-21T04:08:06;73.40;;;37.30;;
3561;SDS011;1795;52.074;4.754;2023-02-21T04:10:34;69.90;;;36.83;;
3561;SDS011;1795;52.074;4.754;2023-02-21T04:13:18;78.30;;;35.50;;
3561;SDS011;1795;52.074;4.754;2023-02-21T04:15:46;71.00;;;37.40;;
3561;SDS011;1795;52.074;4.754;2023-02-21T04:18:14;78.88;;;39.42;;
3561;SDS011;1795;52.074;4.754;2023-02-21T04:20:42;67.30;;;38.25;;
3561;SDS011;1795;52.074;4.754;2023-02-21T04:23:11;81.43;;;38.88;;
3561;SDS011;1795;52.074;4.754;2023-02-21T04:25:43;71.82;;;38.65;;
3561;SDS011;1795;52.074;4.754;2023-02-21T04:28:11;77.30;;;40.63;;
3561;SDS011;1795;52.074;4.754;2023-02-21T04:30:41;77.90;;;38.40;;
3561;SDS011;1795;52.074;4.754;2023-02-21T04:33:09;78.72;;;39.03;;
3561;SDS011;1795;52.074;4.754;2023-02-21T04:35:37;74.95;;;37.63;;
3561;SDS011;1795;52.074;4.754;2023-02-21T04:38:05;76.65;;;37.28;;
3561;SDS011;1795;52.074;4.754;2023-02-21T04:40:33;64.57;;;36.55;;
3561;SDS011;1795;52.074;4.754;2023-02-21T04:43:01;67.00;;;36.20;;
3561;SDS011;1795;52.074;4.754;2023-02-21T04:45:29;71.60;;;35.95;;
3561;SDS011;1795;52.074;4.754;2023-02-21T04:47:58;70.93;;;36.63;;
3561;SDS011;1795;52.074;4.754;2023-02-21T04:50:26;77.32;;;37.88;;
3561;SDS011;1795;52.074;4.754;2023-02-21T04:52:54;73.60;;;37.85;;
3561;SDS011;1795;52.074;4.754;2023-02-21T04:55:22;71.95;;;35.88;;
3561;SDS011;1795;52.074;4.754;2023-02-21T04:57:50;83.00;;;36.53;;
3561;SDS011;1795;52.074;4.754;2023-02-21T05:00:18;70.70;;;36.27;;
3561;SDS011;1795;52.074;4.754;2023-02-21T05:02:46;74.03;;;36.80;;
3561;SDS011;1795;52.074;4.754;2023-02-21T05:05:16;74.20;;;37.05;;
3561;SDS011;1795;52.074;4.754;2023-02-21T05:07:44;85.75;;;37.88;;
3561;SDS011;1795;52.074;4.754;2023-02-21T05:10:13;72.43;;;36.65;;
3561;SDS011;1795;52.074;4.754;2023-02-21T05:12:41;69.18;;;35.25;;
3561;SDS011;1795;52.074;4.754;2023-02-21T05:15:11;74.68;;;36.83;;
3561;SDS011;1795;52.074;4.754;2023-02-21T05:17:39;73.07;;;37.13;;
3561;SDS011;1795;52.074;4.754;2023-02-21T05:20:08;70.67;;;37.00;;
3561;SDS011;1795;52.074;4.754;2023-02-21T05:22:39;72.90;;;37.33;;
3561;SDS011;1795;52.074;4.754;2023-02-21T05:25:12;71.90;;;36.20;;
3561;SDS011;1795;52.074;4.754;2023-02-21T05:27:41;70.20;;;35.60;;
3561;SDS011;1795;52.074;4.754;2023-02-21T05:30:10;75.55;;;38.25;;
3561;SDS011;1795;52.074;4.754;2023-02-21T05:32:39;80.18;;;39.97;;
3561;SDS011;1795;52.074;4.754;2023-02-21T05:35:07;78.03;;;38.15;;
3561;SDS011;1795;52.074;4.754;2023-02-21T05:37:36;68.90;;;36.95;;
3561;SDS011;1795;52.074;4.754;2023-02-21T05:40:06;75.70;;;37.47;;
3561;SDS011;1795;52.074;4.754;2023-02-21T05:42:37;69.45;;;38.35;;
3561;SDS011;1795;52.074;4.754;2023-02-21T05:45:05;67.70;;;37.75;;
3561;SDS011;1795;52.074;4.754;2023-02-21T05:47:34;73.15;;;37.40;;
3561;SDS011;1795;52.074;4.754;2023-02-21T05:50:03;73.13;;;36.80;;
3561;SDS011;1795;52.074;4.754;2023-02-21T05:52:32;76.22;;;39.42;;
3561;SDS011;1795;52.074;4.754;2023-02-21T05:55:01;74.68;;;38.67;;
3561;SDS011;1795;52.074;4.754;2023-02-21T05:57:29;75.07;;;37.95;;
3561;SDS011;1795;52.074;4.754;2023-02-21T05:59:57;73.00;;;36.55;;
3561;SDS011;1795;52.074;4.754;2023-02-21T06:02:25;75.95;;;37.72;;
3561;SDS011;1795;52.074;4.754;2023-02-21T06:04:53;80.38;;;39.97;;
3561;SDS011;1795;52.074;4.754;2023-02-21T06:07:21;77.35;;;40.38;;
3561;SDS011;1795;52.074;4.754;2023-02-21T06:09:49;79.80;;;37.78;;
3561;SDS011;1795;52.074;4.754;2023-02-21T06:12:19;83.13;;;40.05;;
3561;SDS011;1795;52.074;4.754;2023-02-21T06:14:47;72.80;;;38.17;;
3561;SDS011;1795;52.074;4.754;2023-02-21T06:17:15;71.72;;;36.50;;
3561;SDS011;1795;52.074;4.754;2023-02-21T06:19:43;71.97;;;38.40;;
3561;SDS011;1795;52.074;4.754;2023-02-21T06:22:11;68.57;;;37.67;;
3561;SDS011;1795;52.074;4.754;2023-02-21T06:24:39;67.07;;;36.80;;
3561;SDS011;1795;52.074;4.754;2023-02-21T06:27:07;70.75;;;39.53;;
3561;SDS011;1795;52.074;4.754;2023-02-21T06:29:37;76.22;;;37.40;;
3561;SDS011;1795;52.074;4.754;2023-02-21T06:32:04;76.40;;;39.03;;
3561;SDS011;1795;52.074;4.754;2023-02-21T06:34:33;71.00;;;37.38;;
3561;SDS011;1795;52.074;4.754;2023-02-21T06:37:01;72.20;;;37.22;;
3561;SDS011;1795;52.074;4.754;2023-02-21T06:39:30;68.97;;;38.10;;
3561;SDS011;1795;52.074;4.754;2023-02-21T06:41:58;83.10;;;40.72;;
3561;SDS011;1795;52.074;4.754;2023-02-21T06:44:26;72.20;;;39.22;;
3561;SDS011;1795;52.074;4.754;2023-02-21T06:46:55;79.20;;;39.47;;
3561;SDS011;1795;52.074;4.754;2023-02-21T06:49:23;83.93;;;40.60;;
3561;SDS011;1795;52.074;4.754;2023-02-21T06:51:51;66.60;;;37.47;;
3561;SDS011;1795;52.074;4.754;2023-02-21T06:54:19;77.40;;;41.08;;
3561;SDS011;1795;52.074;4.754;2023-02-21T06:56:47;72.30;;;38.90;;
3561;SDS011;1795;52.074;4.754;2023-02-21T06:59:15;76.60;;;39.97;;
3561;SDS011;1795;52.074;4.754;2023-02-21T07:01:43;79.55;;;39.22;;
3561;SDS011;1795;52.074;4.754;2023-02-21T07:04:13;78.35;;;39.65;;
3561;SDS011;1795;52.074;4.754;2023-02-21T07:06:41;76.68;;;36.75;;
3561;SDS011;1795;52.074;4.754;2023-02-21T07:09:09;72.03;;;38.30;;
3561;SDS011;1795;52.074;4.754;2023-02-21T07:11:37;82.23;;;37.90;;
3561;SDS011;1795;52.074;4.754;2023-02-21T07:14:05;77.70;;;38.67;;
3561;SDS011;1795;52.074;4.754;2023-02-21T07:16:33;74.57;;;38.97;;
3561;SDS011;1795;52.074;4.754;2023-02-21T07:19:01;75.33;;;38.93;;
3561;SDS011;1795;52.074;4.754;2023-02-21T07:21:31;72.10;;;37.83;;
3561;SDS011;1795;52.074;4.754;2023-02-21T07:23:58;79.10;;;40.10;;
3561;SDS011;1795;52.074;4.754;2023-02-21T07:26:27;78.97;;;39.78;;
3561;SDS011;1795;52.074;4.754;2023-02-21T07:28:55;77.72;;;38.88;;
3561;SDS011;1795;52.074;4.754;2023-02-21T07:31:23;68.57;;;38.10;;
3561;SDS011;1795;52.074;4.754;2023-02-21T07:33:51;72.93;;;39.30;;
3561;SDS011;1795;52.074;4.754;2023-02-21T07:36:19;78.85;;;38.97;;
3561;SDS011;1795;52.074;4.754;2023-02-21T07:38:49;80.35;;;39.95;;
3561;SDS011;1795;52.074;4.754;2023-02-21T07:41:17;83.40;;;39.15;;
3561;SDS011;1795;52.074;4.754;2023-02-21T07:43:45;75.78;;;39.70;;
3561;SDS011;1795;52.074;4.754;2023-02-21T07:46:14;68.47;;;37.72;;
3561;SDS011;1795;52.074;4.754;2023-02-21T07:48:43;85.85;;;38.92;;
3561;SDS011;1795;52.074;4.754;2023-02-21T07:51:12;66.18;;;37.03;;
3561;SDS011;1795;52.074;4.754;2023-02-21T07:53:40;68.80;;;36.15;;
3561;SDS011;1795;52.074;4.754;2023-02-21T07:56:09;75.13;;;36.40;;
3561;SDS011;1795;52.074;4.754;2023-02-21T07:58:37;73.43;;;35.88;;
3561;SDS011;1795;52.074;4.754;2023-02-21T08:01:05;72.68;;;38.13;;
3561;SDS011;1795;52.074;4.754;2023-02-21T08:03:34;72.13;;;37.65;;
3561;SDS011;1795;52.074;4.754;2023-02-21T08:06:03;73.78;;;35.13;;
3561;SDS011;1795;52.074;4.754;2023-02-21T08:08:31;75.45;;;36.75;;
3561;SDS011;1795;52.074;4.754;2023-02-21T08:10:59;63.70;;;35.42;;
3561;SDS011;1795;52.074;4.754;2023-02-21T08:13:29;73.60;;;36.73;;
3561;SDS011;1795;52.074;4.754;2023-02-21T08:15:57;71.20;;;35.70;;
3561;SDS011;1795;52.074;4.754;2023-02-21T08:18:25;72.13;;;35.90;;
3561;SDS011;1795;52.074;4.754;2023-02-21T08:20:53;67.25;;;36.58;;
3561;SDS011;1795;52.074;4.754;2023-02-21T08:23:22;67.50;;;34.90;;
3561;SDS011;1795;52.074;4.754;2023-02-21T08:25:51;65.05;;;35.35;;
3561;SDS011;1795;52.074;4.754;2023-02-21T08:28:19;70.57;;;35.78;;
3561;SDS011;1795;52.074;4.754;2023-02-21T08:30:48;68.43;;;35.80;;
3561;SDS011;1795;52.074;4.754;2023-02-21T08:33:16;66.55;;;36.03;;
3561;SDS011;1795;52.074;4.754;2023-02-21T08:35:44;63.22;;;34.33;;
3561;SDS011;1795;52.074;4.754;2023-02-21T08:38:12;73.25;;;36.17;;
3561;SDS011;1795;52.074;4.754;2023-02-21T08:40:40;63.35;;;36.28;;
3561;SDS011;1795;52.074;4.754;2023-02-21T08:43:08;65.32;;;34.45;;
3561;SDS011;1795;52.074;4.754;2023-02-21T08:45:37;64.45;;;34.17;;
3561;SDS011;1795;52.074;4.754;2023-02-21T08:48:06;63.75;;;33.63;;
3561;SDS011;1795;52.074;4.754;2023-02-21T08:50:34;59.85;;;34.58;;
3561;SDS011;1795;52.074;4.754;2023-02-21T08:53:02;67.05;;;36.10;;
3561;SDS011;1795;52.074;4.754;2023-02-21T08:55:31;57.80;;;34.38;;
3561;SDS011;1795;52.074;4.754;2023-02-21T08:57:59;66.18;;;33.42;;
3561;SDS011;1795;52.074;4.754;2023-02-21T09:00:27;63.50;;;35.10;;
3561;SDS011;1795;52.074;4.754;2023-02-21T09:02:55;67.82;;;34.53;;
3561;SDS011;1795;52.074;4.754;2023-02-21T09:05:25;68.95;;;36.00;;
3561;SDS011;1795;52.074;4.754;2023-02-21T09:07:55;57.88;;;34.10;;
3561;SDS011;1795;52.074;4.754;2023-02-21T09:10:27;62.42;;;35.00;;
3561;SDS011;1795;52.074;4.754;2023-02-21T09:12:56;62.20;;;34.00;;
3561;SDS011;1795;52.074;4.754;2023-02-21T09:15:24;63.80;;;35.17;;
3561;SDS011;1795;52.074;4.754;2023-02-21T09:17:53;61.35;;;33.97;;
3561;SDS011;1795;52.074;4.754;2023-02-21T09:20:21;65.27;;;33.33;;
3561;SDS011;1795;52.074;4.754;2023-02-21T09:22:52;69.32;;;35.60;;
3561;SDS011;1795;52.074;4.754;2023-02-21T09:25:21;69.13;;;34.35;;
3561;SDS011;1795;52.074;4.754;2023-02-21T09:27:51;62.22;;;31.70;;
3561;SDS011;1795;52.074;4.754;2023-02-21T09:30:21;67.63;;;34.27;;
3561;SDS011;1795;52.074;4.754;2023-02-21T09:32:51;67.30;;;34.75;;
3561;SDS011;1795;52.074;4.754;2023-02-21T09:35:20;60.85;;;33.92;;
3561;SDS011;1795;52.074;4.754;2023-02-21T09:37:49;68.22;;;34.58;;
3561;SDS011;1795;52.074;4.754;2023-02-21T09:40:23;67.75;;;33.95;;
3561;SDS011;1795;52.074;4.754;2023-02-21T09:43:00;63.25;;;34.58;;
3561;SDS011;1795;52.074;4.754;2023-02-21T09:45:31;70.43;;;35.30;;
3561;SDS011;1795;52.074;4.754;2023-02-21T09:48:03;67.15;;;36.50;;
3561;SDS011;1795;52.074;4.754;2023-02-21T09:50:38;67.18;;;36.90;;
3561;SDS011;1795;52.074;4.754;2023-02-21T09:53:08;73.10;;;36.05;;
3561;SDS011;1795;52.074;4.754;2023-02-21T09:55:42;68.40;;;35.37;;
3561;SDS011;1795;52.074;4.754;2023-02-21T09:58:11;73.68;;;34.95;;
3561;SDS011;1795;52.074;4.754;2023-02-21T10:00:41;64.40;;;33.30;;
3561;SDS011;1795;52.074;4.754;2023-02-21T10:03:22;73.15;;;36.83;;
3561;SDS011;1795;52.074;4.754;2023-02-21T10:06:15;70.93;;;35.83;;
3561;SDS011;1795;52.074;4.754;2023-02-21T10:08:53;70.20;;;36.17;;
3561;SDS011;1795;52.074;4.754;2023-02-21T10:11:30;63.90;;;34.72;;
3561;SDS011;1795;52.074;4.754;2023-02-21T10:14:12;79.25;;;38.17;;
3561;SDS011;1795;52.074;4.754;2023-02-21T10:16:51;76.93;;;36.63;;
3561;SDS011;1795;52.074;4.754;2023-02-21T10:19:37;72.00;;;36.70;;
3561;SDS011;1795;52.074;4.754;2023-02-21T10:22:12;66.75;;;36.10;;
3561;SDS011;1795;52.074;4.754;2023-02-21T10:24:43;84.72;;;36.72;;
3561;SDS011;1795;52.074;4.754;2023-02-21T10:27:13;79.90;;;37.63;;
3561;SDS011;1795;52.074;4.754;2023-02-21T10:29:46;83.80;;;37.00;;
3561;SDS011;1795;52.074;4.754;2023-02-21T10:32:18;73.40;;;37.00;;
3561;SDS011;1795;52.074;4.754;2023-02-21T10:34:46;79.63;;;36.95;;
3561;SDS011;1795;52.074;4.754;2023-02-21T10:37:21;72.72;;;37.53;;
3561;SDS011;1795;52.074;4.754;2023-02-21T10:40:00;85.38;;;39.13;;
3561;SDS011;1795;52.074;4.754;2023-02-21T10:42:37;83.88;;;38.90;;
3561;SDS011;1795;52.074;4.754;2023-02-21T10:45:09;72.90;;;37.03;;
3561;SDS011;1795;52.074;4.754;2023-02-21T10:47:44;72.78;;;37.70;;
3561;SDS011;1795;52.074;4.754;2023-02-21T10:50:35;83.80;;;36.65;;
3561;SDS011;1795;52.074;4.754;2023-02-21T10:53:08;80.50;;;38.00;;
3561;SDS011;1795;52.074;4.754;2023-02-21T10:55:44;83.63;;;37.25;;
3561;SDS011;1795;52.074;4.754;2023-02-21T10:58:17;89.30;;;39.90;;
3561;SDS011;1795;52.074;4.754;2023-02-21T11:00:53;82.15;;;36.88;;
3561;SDS011;1795;52.074;4.754;2023-02-21T11:03:22;79.93;;;35.90;;
3561;SDS011;1795;52.074;4.754;2023-02-21T11:05:53;90.90;;;38.38;;
3561;SDS011;1795;52.074;4.754;2023-02-21T11:08:33;77.63;;;35.67;;
3561;SDS011;1795;52.074;4.754;2023-02-21T11:11:03;80.45;;;34.63;;
3561;SDS011;1795;52.074;4.754;2023-02-21T11:13:33;72.63;;;34.85;;
3561;SDS011;1795;52.074;4.754;2023-02-21T11:16:09;68.57;;;33.27;;
3561;SDS011;1795;52.074;4.754;2023-02-21T11:18:39;70.88;;;32.90;;
3561;SDS011;1795;52.074;4.754;2023-02-21T11:21:11;69.63;;;32.60;;
3561;SDS011;1795;52.074;4.754;2023-02-21T11:23:43;67.30;;;32.95;;
3561;SDS011;1795;52.074;4.754;2023-02-21T11:26:13;59.30;;;29.42;;
3561;SDS011;1795;52.074;4.754;2023-02-21T11:28:43;63.47;;;29.63;;
3561;SDS011;1795;52.074;4.754;2023-02-21T11:31:14;51.92;;;26.73;;
3561;SDS011;1795;52.074;4.754;2023-02-21T11:33:55;53.42;;;26.35;;
3561;SDS011;1795;52.074;4.754;2023-02-21T11:36:26;51.63;;;27.08;;
3561;SDS011;1795;52.074;4.754;2023-02-21T11:38:59;50.23;;;27.13;;
3561;SDS011;1795;52.074;4.754;2023-02-21T11:41:36;51.53;;;27.10;;
3561;SDS011;1795;52.074;4.754;2023-02-21T11:44:23;52.35;;;26.80;;
3561;SDS011;1795;52.074;4.754;2023-02-21T11:46:54;50.28;;;27.23;;
3561;SDS011;1795;52.074;4.754;2023-02-21T11:49:33;47.47;;;25.60;;
3561;SDS011;1795;52.074;4.754;2023-02-21T11:52:08;49.72;;;26.35;;
3561;SDS011;1795;52.074;4.754;2023-02-21T11:54:40;54.85;;;27.63;;
3561;SDS011;1795;52.074;4.754;2023-02-21T11:57:13;49.53;;;26.88;;
3561;SDS011;1795;52.074;4.754;2023-02-21T11:59:51;53.28;;;27.40;;
3561;SDS011;1795;52.074;4.754;2023-02-21T12:05:33;51.25;;;27.80;;
3561;SDS011;1795;52.074;4.754;2023-02-21T12:08:19;55.17;;;28.20;;
3561;SDS011;1795;52.074;4.754;2023-02-21T12:10:58;55.88;;;27.70;;
3561;SDS011;1795;52.074;4.754;2023-02-21T12:13:35;59.20;;;30.20;;
3561;SDS011;1795;52.074;4.754;2023-02-21T12:16:19;53.55;;;28.42;;
3561;SDS011;1795;52.074;4.754;2023-02-21T12:18:57;49.35;;;27.98;;
3561;SDS011;1795;52.074;4.754;2023-02-21T12:21:44;44.33;;;27.10;;
3561;SDS011;1795;52.074;4.754;2023-02-21T12:24:28;48.67;;;27.95;;
3561;SDS011;1795;52.074;4.754;2023-02-21T12:27:10;48.35;;;28.25;;
3561;SDS011;1795;52.074;4.754;2023-02-21T12:32:48;50.45;;;28.73;;
3561;SDS011;1795;52.074;4.754;2023-02-21T12:35:25;44.88;;;26.73;;
3561;SDS011;1795;52.074;4.754;2023-02-21T12:38:12;52.00;;;29.33;;
3561;SDS011;1795;52.074;4.754;2023-02-21T12:40:47;49.65;;;27.20;;
3561;SDS011;1795;52.074;4.754;2023-02-21T12:43:25;46.00;;;28.65;;
3561;SDS011;1795;52.074;4.754;2023-02-21T12:46:04;42.45;;;27.00;;
3561;SDS011;1795;52.074;4.754;2023-02-21T12:48:40;49.75;;;29.40;;
3561;SDS011;1795;52.074;4.754;2023-02-21T12:51:11;47.85;;;29.25;;
3561;SDS011;1795;52.074;4.754;2023-02-21T12:53:45;49.53;;;28.85;;
3561;SDS011;1795;52.074;4.754;2023-02-21T12:56:20;49.03;;;29.80;;
3561;SDS011;1795;52.074;4.754;2023-02-21T12:58:52;54.50;;;31.55;;
3561;SDS011;1795;52.074;4.754;2023-02-21T13:01:25;47.55;;;29.27;;
3561;SDS011;1795;52.074;4.754;2023-02-21T13:04:02;51.70;;;31.97;;
3561;SDS011;1795;52.074;4.754;2023-02-21T13:06:44;49.55;;;31.67;;
3561;SDS011;1795;52.074;4.754;2023-02-21T13:09:19;55.45;;;33.83;;
3561;SDS011;1795;52.074;4.754;2023-02-21T13:11:57;57.75;;;34.70;;
3561;SDS011;1795;52.074;4.754;2023-02-21T13:14:31;55.50;;;34.47;;
3561;SDS011;1795;52.074;4.754;2023-02-21T13:17:03;52.50;;;33.63;;
3561;SDS011;1795;52.074;4.754;2023-02-21T13:19:39;55.08;;;34.33;;
3561;SDS011;1795;52.074;4.754;2023-02-21T13:24:58;57.28;;;34.17;;
3561;SDS011;1795;52.074;4.754;2023-02-21T13:27:38;56.00;;;34.90;;
3561;SDS011;1795;52.074;4.754;2023-02-21T13:30:16;54.30;;;33.30;;
3561;SDS011;1795;52.074;4.754;2023-02-21T13:32:51;56.13;;;33.42;;
3561;SDS011;1795;52.074;4.754;2023-02-21T13:35:25;55.53;;;33.55;;
3561;SDS011;1795;52.074;4.754;2023-02-21T13:37:57;55.97;;;32.72;;
3561;SDS011;1795;52.074;4.754;2023-02-21T13:40:31;50.85;;;33.45;;
3561;SDS011;1795;52.074;4.754;2023-02-21T13:43:04;48.05;;;32.83;;
3561;SDS011;1795;52.074;4.754;2023-02-21T13:45:37;57.17;;;33.00;;
3561;SDS011;1795;52.074;4.754;2023-02-21T13:48:23;50.05;;;31.63;;
3561;SDS011;1795;52.074;4.754;2023-02-21T13:50:56;49.70;;;30.43;;
3561;SDS011;1795;52.074;4.754;2023-02-21T13:53:26;47.88;;;29.77;;
3561;SDS011;1795;52.074;4.754;2023-02-21T14:05:04;32.13;;;20.80;;
3561;SDS011;1795;52.074;4.754;2023-02-21T14:10:32;24.40;;;15.18;;
3561;SDS011;1795;52.074;4.754;2023-02-21T14:13:06;21.63;;;12.57;;
3561;SDS011;1795;52.074;4.754;2023-02-21T14:15:46;17.10;;;11.40;;
3561;SDS011;1795;52.074;4.754;2023-02-21T14:18:19;16.80;;;12.00;;
3561;SDS011;1795;52.074;4.754;2023-02-21T14:20:51;15.00;;;11.10;;
3561;SDS011;1795;52.074;4.754;2023-02-21T14:23:24;15.45;;;10.80;;
3561;SDS011;1795;52.074;4.754;2023-02-21T14:26:02;17.95;;;10.68;;
3561;SDS011;1795;52.074;4.754;2023-02-21T14:31:46;12.82;;;9.10;;
3561;SDS011;1795;52.074;4.754;2023-02-21T14:34:19;13.55;;;9.32;;
3561;SDS011;1795;52.074;4.754;2023-02-21T14:36:50;13.98;;;9.10;;
3561;SDS011;1795;52.074;4.754;2023-02-21T14:39:22;12.68;;;9.35;;
3561;SDS011;1795;52.074;4.754;2023-02-21T14:41:54;12.20;;;8.90;;
3561;SDS011;1795;52.074;4.754;2023-02-21T14:44:49;13.68;;;8.90;;
3561;SDS011;1795;52.074;4.754;2023-02-21T14:47:38;12.67;;;8.67;;
3561;SDS011;1795;52.074;4.754;2023-02-21T14:50:29;12.43;;;7.53;;
3561;SDS011;1795;52.074;4.754;2023-02-21T14:53:22;14.00;;;9.07;;
3561;SDS011;1795;52.074;4.754;2023-02-21T15:02:17;25.83;;;19.60;;
3561;SDS011;1795;52.074;4.754;2023-02-21T15:04:54;30.05;;;22.05;;
3561;SDS011;1795;52.074;4.754;2023-02-21T15:07:30;31.43;;;23.10;;
3561;SDS011;1795;52.074;4.754;2023-02-21T15:10:04;37.28;;;25.75;;
3561;SDS011;1795;52.074;4.754;2023-02-21T15:12:38;37.58;;;25.77;;
3561;SDS011;1795;52.074;4.754;2023-02-21T15:15:13;35.45;;;24.25;;
3561;SDS011;1795;52.074;4.754;2023-02-21T15:17:53;35.97;;;25.65;;
3561;SDS011;1795;52.074;4.754;2023-02-21T15:20:24;42.28;;;27.17;;
3561;SDS011;1795;52.074;4.754;2023-02-21T15:22:56;36.40;;;24.75;;
3561;SDS011;1795;52.074;4.754;2023-02-21T15:25:27;39.20;;;26.30;;
3561;SDS011;1795;52.074;4.754;2023-02-21T15:28:12;40.50;;;26.77;;
3561;SDS011;1795;52.074;4.754;2023-02-21T15:30:54;45.05;;;28.33;;
3561;SDS011;1795;52.074;4.754;2023-02-21T15:33:25;41.10;;;28.13;;
3561;SDS011;1795;52.074;4.754;2023-02-21T15:35:56;44.15;;;27.60;;
3561;SDS011;1795;52.074;4.754;2023-02-21T15:38:28;44.40;;;27.92;;
3561;SDS011;1795;52.074;4.754;2023-02-21T15:41:01;42.30;;;26.73;;
3561;SDS011;1795;52.074;4.754;2023-02-21T15:43:37;39.40;;;26.20;;
3561;SDS011;1795;52.074;4.754;2023-02-21T15:46:12;47.25;;;27.60;;
3561;SDS011;1795;52.074;4.754;2023-02-21T15:48:44;45.20;;;27.77;;
3561;SDS011;1795;52.074;4.754;2023-02-21T15:51:13;46.05;;;30.10;;
3561;SDS011;1795;52.074;4.754;2023-02-21T15:53:42;48.65;;;29.95;;
3561;SDS011;1795;52.074;4.754;2023-02-21T15:56:31;50.27;;;31.00;;
3561;SDS011;1795;52.074;4.754;2023-02-21T15:59:08;50.67;;;30.43;;
3561;SDS011;1795;52.074;4.754;2023-02-21T16:01:38;49.78;;;30.10;;